Terminal Aerodrome Forecast
Issued by NWS

Current Version | Previous Version | Graphics & Text | Print | Product List | Glossary On
Versions: 1 2 3 4 5 6 7 8 9 10 11 12 13 14
000
FTUS41 KILN 061740
TAFLCK
TAF
KLCK 061740Z 0618/0718 10005KT 3SM -RA BR OVC006
     FM061930 35005KT 2SM -RA BR OVC005
     FM062100 29008KT 3SM -DZ BR OVC007
     FM070100 28012G20KT P6SM OVC012
     FM070700 27009KT P6SM OVC022
     FM070900 27005KT P6SM SCT200
     FM071300 24006KT P6SM BKN150=

USA.gov is the U.S. government's official web portal to all federal, state and local government web resources and services.